Terminal Aerodrome Forecast
Issued by NWS

Home | Current Version | Previous Version | Text Only | Print | Product List | Glossary On
Versions: 1 2 3 4 5 6 7 8 9 10 11 12 13 14 15 16 17 18 19 20 21
000
FTUS45 KABQ 192300
TAFLVS
TAF
KLVS 192338Z 2000/2024 14007KT P6SM SCT050 SCT100
     FM200400 VRB06KT P6SM SCT035 SCT080
     FM200900 04006KT P6SM VCSH BKN035 BKN080
     FM201400 11007KT P6SM SCT040 SCT080
     FM201900 12013KT P6SM VCTS BKN050CB BKN120=

USA.gov is the U.S. government's official web portal to all federal, state and local government web resources and services.